Nearby METAR Reports

 

EGFF - Cardiff-Wales Ar, United Kingdom
Distance from station: SW 17km
Updated: 16/08/2018 22:50
Mostly cloudy
Mostly cloudy
 Wind from WNW
Wind: WNW 9 km/h
Temperature: 15°C
Dew Point: 12°C
Humidity: 82%
Barometer: 1017 hPa
Clouds: Mostly cloudy
Visibility: 10 km
Cloud details: Mostly cloudy 671 m
2018/08/16 21:50 EGFF 162150Z AUTO 30005KT 9999 BKN022 15/12 Q1017
EGDX - St Athan Raf, United Kingdom
Distance from station: SW 20km
Updated: 16/08/2018 22:50
Few Clouds
Few Clouds
 Wind from W
Wind: W 17 km/h
Temperature: 16°C
Dew Point: 12°C
Humidity: 77%
Barometer: 1017 hPa
Clouds: Few Clouds
Visibility: 10 km
Cloud details: Few Clouds 640 m
2018/08/16 21:50 EGDX 162150Z AUTO 28009KT 9999 FEW021/// 16/12 Q1017
 
EGGD - Bristol/Lulsgate, United Kingdom
Distance from station: ESE 37km
Updated: 16/08/2018 22:50
Clear
Clear
 Wind from W
Wind: W 13 km/h
Temperature: 13°C
Dew Point: 12°C
Humidity: 94%
Barometer: 1017 hPa
Clouds: Clear
Visibility: 10 km
2018/08/16 21:50 EGGD 162150Z AUTO 26007KT 9999 NCD 13/12 Q1017
EGDY - Yeovilton (navy), United Kingdom
Distance from station: SE 69km
Updated: 16/08/2018 22:50
Few Clouds
Few Clouds
 Wind from W
Wind: W 7 km/h
Temperature: 13°C
Dew Point: 10°C
Humidity: 82%
Barometer: 1017 hPa
Clouds: Few Clouds
Visibility: 10 km
Cloud details: Few Clouds 914 m
2018/08/16 21:50 EGDY 162150Z 26004KT 9999 FEW030 13/10 Q1017 BLU NOSIG